Time;durP1;ratioP1;P1;durP2;ratioP2;P2;SDS_P1;SDS_P2;PMS_P1;PMS_P2;Temp;Humidity;BMP_temperature;BMP_pressure;BME280_temperature;BME280_humidity;BME280_pressure;Samples;Min_cycle;Max_cycle;Signal;HPM_P1;HPM_P2
2022/01/24 00:01:15;;;;;;;37.73;20.20;;;;;;;;;;4753418;30;20414;-78
2022/01/24 00:03:41;;;;;;;36.17;18.03;;;;;;;;;;4753026;30;20063;-78
2022/01/24 00:06:09;;;;;;;42.40;19.87;;;;;;;;;;4753125;30;20032;-78
2022/01/24 00:08:35;;;;;;;37.35;18.40;;;;;;;;;;4753091;30;20044;-78
2022/01/24 00:11:06;;;;;;;36.10;18.47;;;;;;;;;;4753029;30;20416;-77
2022/01/24 00:14:39;;;;;;;36.25;18.40;;;;;;;;;;4752745;30;20036;-78
2022/01/24 00:27:07;;;;;;;34.05;17.25;;;;;;;;;;4743264;30;20556;-78
2022/01/24 00:29:33;;;;;;;36.53;18.13;;;;;;;;;;4752373;30;20044;-78
2022/01/24 00:31:58;;;;;;;35.17;18.33;;;;;;;;;;4752936;30;20070;-77
2022/01/24 00:34:24;;;;;;;33.73;17.60;;;;;;;;;;4752704;30;20115;-78
2022/01/24 00:36:51;;;;;;;36.90;17.63;;;;;;;;;;4752692;30;20040;-77
2022/01/24 00:39:16;;;;;;;;;;;;;;;;;;4752737;30;20051;-77
2022/01/24 00:46:59;;;;;;;38.97;18.98;;;;;;;;;;4752176;30;20063;-77
2022/01/24 00:57:02;;;;;;;36.80;17.88;;;;;;;;;;4752420;30;20060;-75
2022/01/24 00:59:27;;;;;;;37.03;17.92;;;;;;;;;;4752345;30;20047;-75
2022/01/24 01:01:53;;;;;;;36.53;17.53;;;;;;;;;;4752313;30;20040;-75
2022/01/24 01:04:22;;;;;;;34.03;18.83;;;;;;;;;;4751152;30;20052;-78
2022/01/24 01:06:49;;;;;;;35.63;16.67;;;;;;;;;;4746455;30;20545;-78
2022/01/24 01:20:13;;;;;;;30.80;15.35;;;;;;;;;;4751877;30;20437;-75
2022/01/24 01:22:38;;;;;;;34.28;16.60;;;;;;;;;;4752301;30;20048;-75
2022/01/24 01:25:04;;;;;;;30.90;16.80;;;;;;;;;;4752854;30;20043;-75
2022/01/24 01:27:37;;;;;;;32.83;17.00;;;;;;;;;;4754479;30;20047;-75
2022/01/24 01:30:10;;;;;;;32.40;16.73;;;;;;;;;;4755826;30;20044;-76
2022/01/24 01:36:11;;;;;;;26.83;15.23;;;;;;;;;;4755334;30;20109;-77
2022/01/24 01:56:37;;;;;;;33.20;17.35;;;;;;;;;;4753985;30;20044;-76
2022/01/24 01:59:03;;;;;;;32.47;17.03;;;;;;;;;;4755391;30;20490;-76
2022/01/24 02:01:28;;;;;;;33.07;16.83;;;;;;;;;;4754893;30;20478;-78
2022/01/24 02:03:55;;;;;;;31.93;16.13;;;;;;;;;;4753653;30;20151;-78
2022/01/24 02:06:21;;;;;;;36.60;17.77;;;;;;;;;;4753803;30;20068;-79
2022/01/24 02:08:47;;;;;;;31.17;17.02;;;;;;;;;;4755159;30;20051;-79
2022/01/24 02:11:16;;;;;;;34.73;17.57;;;;;;;;;;4752480;30;20052;-78
2022/01/24 02:13:43;;;;;;;32.35;18.20;;;;;;;;;;4751464;30;20036;-79
2022/01/24 02:16:20;;;;;;;39.00;20.17;;;;;;;;;;4754995;30;20051;-79
2022/01/24 02:19:10;;;;;;;32.88;17.13;;;;;;;;;;4755012;30;20055;-79
2022/01/24 02:21:58;;;;;;;31.23;17.00;;;;;;;;;;4753905;30;20040;-79
2022/01/24 02:24:24;;;;;;;30.35;15.95;;;;;;;;;;4755077;30;20040;-75
2022/01/24 02:26:54;;;;;;;37.70;18.48;;;;;;;;;;4754689;30;20040;-76
2022/01/24 02:29:42;;;;;;;33.33;18.88;;;;;;;;;;4754949;30;20052;-75
2022/01/24 02:32:05;;;;;;;31.98;17.42;;;;;;;;;;4754302;30;20051;-78
2022/01/24 02:34:37;;;;;;;34.97;17.13;;;;;;;;;;4754713;30;20098;-78
2022/01/24 02:37:08;;;;;;;29.75;16.05;;;;;;;;;;4752898;30;20111;-78
2022/01/24 02:39:46;;;;;;;30.67;15.63;;;;;;;;;;4754606;30;20409;-78
2022/01/24 02:52:57;;;;;;;31.83;15.32;;;;;;;;;;4754508;30;20054;-75
2022/01/24 02:55:22;;;;;;;31.87;16.97;;;;;;;;;;4754449;30;20060;-74
2022/01/24 02:57:47;;;;;;;33.43;17.47;;;;;;;;;;4754140;30;20047;-75
2022/01/24 03:00:13;;;;;;;35.97;17.43;;;;;;;;;;4754145;30;20040;-75
2022/01/24 03:02:39;;;;;;;35.83;18.33;;;;;;;;;;4754129;30;20445;-75
2022/01/24 03:05:04;;;;;;;29.37;15.47;;;;;;;;;;4754146;30;20044;-75
2022/01/24 03:07:31;;;;;;;32.27;16.37;;;;;;;;;;4754174;30;20048;-75
2022/01/24 03:09:57;;;;;;;32.08;16.42;;;;;;;;;;4753868;30;20495;-75
2022/01/24 03:12:40;;;;;;;34.07;17.23;;;;;;;;;;4754066;30;20051;-75
2022/01/24 03:15:07;;;;;;;31.23;16.67;;;;;;;;;;4748103;30;20036;-77
2022/01/24 03:17:32;;;;;;;31.80;15.82;;;;;;;;;;4752642;30;20045;-77
2022/01/24 03:19:57;;;;;;;27.87;14.63;;;;;;;;;;4744147;30;20036;-77
2022/01/24 03:22:23;;;;;;;31.77;15.33;;;;;;;;;;4754053;30;20173;-74
2022/01/24 03:24:49;;;;;;;34.07;15.77;;;;;;;;;;4753915;30;20044;-76
2022/01/24 03:27:15;;;;;;;27.80;15.75;;;;;;;;;;4752563;30;20436;-77
2022/01/24 03:29:41;;;;;;;30.60;15.13;;;;;;;;;;4753639;30;20123;-76
2022/01/24 03:32:06;;;;;;;30.17;16.37;;;;;;;;;;4753663;30;20122;-76
2022/01/24 03:34:32;;;;;;;27.37;14.97;;;;;;;;;;4753712;30;20079;-77
2022/01/24 03:36:57;;;;;;;29.40;16.73;;;;;;;;;;4753492;30;20044;-77
2022/01/24 03:39:23;;;;;;;27.83;15.03;;;;;;;;;;4752457;30;20044;-77
2022/01/24 03:41:48;;;;;;;36.50;15.83;;;;;;;;;;4753507;30;20036;-77
2022/01/24 03:44:15;;;;;;;29.20;15.77;;;;;;;;;;4753600;30;20040;-76
2022/01/24 03:46:59;;;;;;;;;;;;;;;;;;4752750;30;20047;-77
2022/01/24 03:52:09;;;;;;;29.52;14.80;;;;;;;;;;4752242;30;20063;-76
2022/01/24 03:54:36;;;;;;;31.37;15.57;;;;;;;;;;4753242;30;20044;-76
2022/01/24 03:57:03;;;;;;;33.95;16.50;;;;;;;;;;4752213;30;20394;-77
2022/01/24 03:59:32;;;;;;;29.80;15.38;;;;;;;;;;4751745;30;20478;-76
2022/01/24 04:01:59;;;;;;;31.20;16.42;;;;;;;;;;4751931;30;20043;-77
2022/01/24 04:04:24;;;;;;;31.98;17.52;;;;;;;;;;4752106;30;20040;-77
2022/01/24 04:06:50;;;;;;;28.67;15.30;;;;;;;;;;4752779;30;20470;-76
2022/01/24 04:09:15;;;;;;;30.30;15.00;;;;;;;;;;4753230;30;20472;-77
2022/01/24 04:11:41;;;;;;;30.87;13.90;;;;;;;;;;4752712;30;20047;-76
2022/01/24 04:17:05;;;;;;;33.00;14.85;;;;;;;;;;4752470;30;20090;-76
2022/01/24 04:22:12;;;;;;;25.30;14.20;;;;;;;;;;4752404;30;20036;-76
2022/01/24 04:24:38;;;;;;;25.25;13.77;;;;;;;;;;4751597;30;20060;-76
2022/01/24 04:27:04;;;;;;;31.17;15.87;;;;;;;;;;4752967;30;20140;-77
2022/01/24 04:29:29;;;;;;;26.15;14.27;;;;;;;;;;4751621;30;20273;-76
2022/01/24 04:31:55;;;;;;;31.57;15.87;;;;;;;;;;4752867;30;20051;-76
2022/01/24 04:34:21;;;;;;;31.43;15.00;;;;;;;;;;4752776;30;20044;-76
2022/01/24 04:36:46;;;;;;;27.43;14.87;;;;;;;;;;4752536;30;20039;-76
2022/01/24 04:39:11;;;;;;;31.33;15.57;;;;;;;;;;4751359;30;20063;-76
2022/01/24 04:41:41;;;;;;;27.30;15.57;;;;;;;;;;4752511;30;20051;-76
2022/01/24 04:52:22;;;;;;;26.58;13.85;;;;;;;;;;4752176;30;19960;-76
2022/01/24 04:54:48;;;;;;;28.02;14.13;;;;;;;;;;4751264;30;20544;-76
2022/01/24 04:57:15;;;;;;;30.90;15.80;;;;;;;;;;4752360;30;20048;-76
2022/01/24 04:59:42;;;;;;;29.10;14.77;;;;;;;;;;4752523;30;20036;-76
2022/01/24 05:02:07;;;;;;;;;;;;;;;;;;4751499;30;20059;-76
2022/01/24 05:04:33;;;;;;;30.20;14.00;;;;;;;;;;4751402;30;20439;-77
2022/01/24 05:06:58;;;;;;;30.17;14.97;;;;;;;;;;4752263;30;20136;-76
2022/01/24 05:09:25;;;;;;;27.20;15.37;;;;;;;;;;4752554;30;20040;-76
2022/01/24 05:11:57;;;;;;;28.33;14.93;;;;;;;;;;4750941;30;20079;-76
2022/01/24 05:25:18;;;;;;;27.38;14.35;;;;;;;;;;4751229;30;20118;-76
2022/01/24 05:27:45;;;;;;;25.35;14.07;;;;;;;;;;4751877;30;20465;-76
2022/01/24 05:30:11;;;;;;;31.60;15.48;;;;;;;;;;4752091;30;20130;-76
2022/01/24 05:32:36;;;;;;;25.60;13.93;;;;;;;;;;4751038;30;20124;-79
2022/01/24 05:35:02;;;;;;;28.30;14.43;;;;;;;;;;4752026;30;20111;-78
2022/01/24 05:37:29;;;;;;;24.97;13.57;;;;;;;;;;4751812;30;20051;-78
2022/01/24 05:39:54;;;;;;;29.08;14.73;;;;;;;;;;4751931;30;20288;-78
2022/01/24 05:42:21;;;;;;;26.23;13.93;;;;;;;;;;4752261;30;20106;-78
2022/01/24 05:44:50;;;;;;;27.15;14.38;;;;;;;;;;4750852;30;20044;-75
2022/01/24 05:47:16;;;;;;;29.67;14.77;;;;;;;;;;4750731;30;20501;-75
2022/01/24 05:49:42;;;;;;;28.60;14.93;;;;;;;;;;4751728;30;20379;-75
2022/01/24 05:52:11;;;;;;;30.37;15.50;;;;;;;;;;4750443;30;20117;-75
2022/01/24 05:54:37;;;;;;;25.92;13.45;;;;;;;;;;4750785;30;20429;-75
2022/01/24 05:57:03;;;;;;;25.65;13.25;;;;;;;;;;4752091;30;20059;-74
2022/01/24 05:59:29;;;;;;;27.58;13.13;;;;;;;;;;4752048;30;20048;-75
2022/01/24 06:01:54;;;;;;;25.77;13.50;;;;;;;;;;4751669;30;20123;-77
2022/01/24 06:04:19;;;;;;;26.30;13.33;;;;;;;;;;4752057;30;20040;-77
2022/01/24 06:06:45;;;;;;;25.77;13.53;;;;;;;;;;4751759;30;20475;-77
2022/01/24 06:09:10;;;;;;;25.23;14.00;;;;;;;;;;4751748;30;20047;-77
2022/01/24 06:11:36;;;;;;;27.45;14.43;;;;;;;;;;4753001;30;20524;-78
2022/01/24 06:14:03;;;;;;;23.93;12.53;;;;;;;;;;4754865;30;20056;-74
2022/01/24 06:16:29;;;;;;;;;;;;;;;;;;4755616;30;20028;-74
2022/01/24 06:18:54;;;;;;;29.15;13.82;;;;;;;;;;4754876;30;20020;-74
2022/01/24 06:21:19;;;;;;;23.73;13.03;;;;;;;;;;4755186;30;20127;-74
2022/01/24 06:23:45;;;;;;;25.23;13.20;;;;;;;;;;4754610;30;20031;-75
2022/01/24 06:26:11;;;;;;;23.63;12.50;;;;;;;;;;4755158;30;20461;-77
2022/01/24 06:28:37;;;;;;;25.75;13.05;;;;;;;;;;4753335;30;20496;-79
2022/01/24 06:31:02;;;;;;;23.83;12.77;;;;;;;;;;4754896;30;20048;-78
2022/01/24 06:33:28;;;;;;;26.67;13.13;;;;;;;;;;4754795;30;20485;-79
2022/01/24 06:35:53;;;;;;;26.70;12.57;;;;;;;;;;4754602;30;20063;-78
2022/01/24 06:38:19;;;;;;;30.83;13.07;;;;;;;;;;4754662;30;20114;-74
2022/01/24 06:40:44;;;;;;;26.00;13.53;;;;;;;;;;4754541;30;20039;-75
2022/01/24 06:43:09;;;;;;;29.93;13.80;;;;;;;;;;4753600;30;20044;-75
2022/01/24 06:45:35;;;;;;;26.60;14.37;;;;;;;;;;4754445;30;20043;-75
2022/01/24 06:48:00;;;;;;;27.77;13.60;;;;;;;;;;4754625;30;20156;-75
2022/01/24 06:50:25;;;;;;;26.27;14.73;;;;;;;;;;4754297;30;20051;-75
2022/01/24 06:52:51;;;;;;;26.87;14.33;;;;;;;;;;4754288;30;20060;-76
2022/01/24 06:55:17;;;;;;;26.60;14.57;;;;;;;;;;4754546;30;20044;-75
2022/01/24 06:57:42;;;;;;;30.90;15.43;;;;;;;;;;4753917;30;20040;-75
2022/01/24 07:00:08;;;;;;;26.43;12.90;;;;;;;;;;4754435;30;20048;-75
2022/01/24 07:02:33;;;;;;;24.17;12.67;;;;;;;;;;4754129;30;20060;-75
2022/01/24 07:04:59;;;;;;;25.47;13.63;;;;;;;;;;4754110;30;20106;-75
2022/01/24 07:07:24;;;;;;;23.40;12.67;;;;;;;;;;4754187;30;20490;-75
2022/01/24 07:09:50;;;;;;;27.87;13.77;;;;;;;;;;4753876;30;20055;-75
2022/01/24 07:12:15;;;;;;;26.77;12.83;;;;;;;;;;4754184;30;20074;-76
2022/01/24 07:14:42;;;;;;;24.47;12.03;;;;;;;;;;4753894;30;20509;-75
2022/01/24 07:19:51;;;;;;;23.48;12.40;;;;;;;;;;4753891;30;20048;-75
2022/01/24 07:22:16;;;;;;;23.27;12.77;;;;;;;;;;4753434;30;20042;-75
2022/01/24 07:24:42;;;;;;;24.73;12.30;;;;;;;;;;4753588;30;20051;-75
2022/01/24 07:27:07;;;;;;;26.83;14.33;;;;;;;;;;4752621;30;20051;-75
2022/01/24 07:29:33;;;;;;;26.20;12.87;;;;;;;;;;4752833;30;20075;-76
2022/01/24 07:31:59;;;;;;;23.13;12.20;;;;;;;;;;4753627;30;20513;-75
2022/01/24 07:34:25;;;;;;;22.10;12.83;;;;;;;;;;4752619;30;20107;-75
2022/01/24 07:36:51;;;;;;;31.93;16.73;;;;;;;;;;4751622;30;20356;-76
2022/01/24 07:39:17;;;;;;;25.33;14.73;;;;;;;;;;4746528;30;20044;-75
2022/01/24 07:41:46;;;;;;;26.57;12.73;;;;;;;;;;4747659;30;20528;-75
2022/01/24 07:44:13;;;;;;;24.08;13.57;;;;;;;;;;4750343;30;20109;-75
2022/01/24 07:46:39;;;;;;;30.65;16.23;;;;;;;;;;4750440;30;20051;-75
2022/01/24 07:49:11;;;;;;;26.97;15.27;;;;;;;;;;4752004;30;20406;-76
2022/01/24 07:51:37;;;;;;;32.15;17.35;;;;;;;;;;4753673;30;20089;-75
2022/01/24 07:54:02;;;;;;;25.47;14.13;;;;;;;;;;4752034;30;20048;-76
2022/01/24 07:56:28;;;;;;;33.83;15.00;;;;;;;;;;4753434;30;20097;-76
2022/01/24 07:58:53;;;;;;;24.13;12.53;;;;;;;;;;4749843;30;20048;-75
2022/01/24 08:01:19;;;;;;;24.10;13.13;;;;;;;;;;4753321;30;20541;-78
2022/01/24 08:03:45;;;;;;;26.45;13.50;;;;;;;;;;4751123;30;20056;-78
2022/01/24 08:06:10;;;;;;;28.07;13.73;;;;;;;;;;4749766;30;20081;-77
2022/01/24 08:08:36;;;;;;;23.00;12.47;;;;;;;;;;4746326;30;20063;-78
2022/01/24 08:11:02;;;;;;;22.97;12.73;;;;;;;;;;4750132;30;20071;-78
2022/01/24 08:13:27;;;;;;;26.10;13.33;;;;;;;;;;4748568;30;20044;-76
2022/01/24 08:15:52;;;;;;;29.27;14.83;;;;;;;;;;4749771;30;20086;-75
2022/01/24 08:18:18;;;;;;;34.10;17.20;;;;;;;;;;4747696;30;20040;-76
2022/01/24 08:20:43;;;;;;;34.83;18.17;;;;;;;;;;4750999;30;20470;-76
2022/01/24 08:23:09;;;;;;;38.20;17.97;;;;;;;;;;4749483;30;20505;-76
2022/01/24 08:25:35;;;;;;;27.83;14.63;;;;;;;;;;4746889;30;20036;-76
2022/01/24 08:28:00;;;;;;;34.27;18.30;;;;;;;;;;4752716;30;20044;-76
2022/01/24 08:30:26;;;;;;;35.83;16.90;;;;;;;;;;4752797;30;20039;-78
2022/01/24 08:32:51;;;;;;;39.50;18.03;;;;;;;;;;4751509;30;20474;-79
2022/01/24 08:35:19;;;;;;;35.33;18.30;;;;;;;;;;4751996;30;20497;-78
2022/01/24 08:37:45;;;;;;;38.53;18.20;;;;;;;;;;4748558;30;20044;-78
2022/01/24 08:40:20;;;;;;;30.27;15.50;;;;;;;;;;4748052;30;20044;-78
2022/01/24 08:42:55;;;;;;;30.17;14.52;;;;;;;;;;4743215;30;20588;-78
2022/01/24 08:48:05;;;;;;;36.10;17.25;;;;;;;;;;4739705;30;20505;-78
2022/01/24 08:50:30;;;;;;;31.70;15.80;;;;;;;;;;4738999;30;20045;-78
2022/01/24 08:53:03;;;;;;;31.50;14.90;;;;;;;;;;4751574;30;20474;-78
2022/01/24 08:55:32;;;;;;;28.65;15.50;;;;;;;;;;4747200;30;20482;-78
2022/01/24 08:57:59;;;;;;;29.90;14.55;;;;;;;;;;4751764;30;20123;-77
2022/01/24 09:00:25;;;;;;;30.60;15.63;;;;;;;;;;4749496;30;20036;-78
2022/01/24 09:02:51;;;;;;;30.05;15.02;;;;;;;;;;4750971;30;20055;-78
2022/01/24 09:05:18;;;;;;;30.20;15.23;;;;;;;;;;4748125;30;20059;-76
2022/01/24 09:07:44;;;;;;;29.23;15.88;;;;;;;;;;4748346;30;20106;-78
2022/01/24 09:10:10;;;;;;;22.83;12.23;;;;;;;;;;4751662;30;20459;-78
2022/01/24 09:12:36;;;;;;;23.33;12.35;;;;;;;;;;4751718;30;20074;-78
2022/01/24 09:15:03;;;;;;;24.13;12.00;;;;;;;;;;4750840;30;20052;-75
2022/01/24 09:17:28;;;;;;;26.23;13.48;;;;;;;;;;4751298;30;20089;-74
2022/01/24 09:19:53;;;;;;;30.03;15.50;;;;;;;;;;4752018;30;20056;-75
2022/01/24 09:22:19;;;;;;;30.00;15.30;;;;;;;;;;4751942;30;20402;-75
2022/01/24 09:24:44;;;;;;;28.77;15.57;;;;;;;;;;4752179;30;20047;-75
2022/01/24 09:27:09;;;;;;;28.73;14.53;;;;;;;;;;4752184;30;20056;-73
2022/01/24 09:29:35;;;;;;;28.23;14.50;;;;;;;;;;4748115;30;20552;-77
2022/01/24 09:32:01;;;;;;;27.33;15.60;;;;;;;;;;4751554;30;20040;-77
2022/01/24 09:34:26;;;;;;;27.05;14.73;;;;;;;;;;4749166;30;20498;-78
2022/01/24 09:36:52;;;;;;;28.47;14.43;;;;;;;;;;4751274;30;20046;-77
2022/01/24 09:39:18;;;;;;;29.77;15.93;;;;;;;;;;4751143;30;20398;-77
2022/01/24 09:41:44;;;;;;;31.50;14.93;;;;;;;;;;4751755;30;20079;-77
2022/01/24 09:44:10;;;;;;;21.92;12.23;;;;;;;;;;4751319;30;20044;-77
2022/01/24 09:46:36;;;;;;;22.90;12.43;;;;;;;;;;4752044;30;20546;-77
2022/01/24 09:49:03;;;;;;;31.33;15.20;;;;;;;;;;4751308;30;20383;-77
2022/01/24 09:51:28;;;;;;;;;;;;;;;;;;4745106;30;20052;-78
2022/01/24 09:53:55;;;;;;;34.95;16.30;;;;;;;;;;4752298;30;20408;-78
2022/01/24 09:56:20;;;;;;;30.23;15.40;;;;;;;;;;4748920;30;20108;-77
2022/01/24 09:58:46;;;;;;;26.90;14.37;;;;;;;;;;4742652;30;20045;-77
2022/01/24 10:01:13;;;;;;;31.83;15.73;;;;;;;;;;4750586;30;20033;-78
2022/01/24 10:03:38;;;;;;;29.83;14.38;;;;;;;;;;4752908;30;20106;-77
2022/01/24 10:06:04;;;;;;;28.90;14.43;;;;;;;;;;4751958;30;20414;-77
2022/01/24 10:08:31;;;;;;;27.80;14.90;;;;;;;;;;4751564;30;20036;-78
2022/01/24 10:10:59;;;;;;;25.52;13.57;;;;;;;;;;4750709;30;20051;-78
2022/01/24 10:16:25;;;;;;;26.13;13.75;;;;;;;;;;4749525;30;20144;-78
2022/01/24 10:19:01;;;;;;;28.88;14.68;;;;;;;;;;4740734;30;20115;-77
2022/01/24 10:21:26;;;;;;;23.33;12.48;;;;;;;;;;4751798;30;20060;-78
2022/01/24 10:23:52;;;;;;;26.93;14.40;;;;;;;;;;4751267;30;20485;-78
2022/01/24 10:26:18;;;;;;;25.77;12.60;;;;;;;;;;4750692;30;20048;-78
2022/01/24 10:28:45;;;;;;;23.33;12.35;;;;;;;;;;4750746;30;20101;-78
2022/01/24 10:31:23;;;;;;;24.60;12.73;;;;;;;;;;4749784;30;20075;-78
2022/01/24 10:34:06;;;;;;;24.95;13.48;;;;;;;;;;4747094;30;20040;-78
2022/01/24 10:36:46;;;;;;;26.70;14.43;;;;;;;;;;4749984;30;20048;-77
2022/01/24 10:39:32;;;;;;;24.42;13.55;;;;;;;;;;4748813;30;20118;-78
2022/01/24 10:45:11;;;;;;;25.27;12.63;;;;;;;;;;4737890;30;20056;-78
2022/01/24 10:47:43;;;;;;;20.55;11.63;;;;;;;;;;4747831;30;20039;-77
2022/01/24 10:50:09;;;;;;;20.95;11.85;;;;;;;;;;4757226;30;20384;-78
2022/01/24 10:52:35;;;;;;;21.87;12.73;;;;;;;;;;4755170;30;20151;-78
2022/01/24 10:55:17;;;;;;;27.13;11.80;;;;;;;;;;4752794;30;20032;-78
2022/01/24 10:57:45;;;;;;;20.75;12.25;;;;;;;;;;4752886;30;20083;-77
2022/01/24 11:00:17;;;;;;;19.63;10.38;;;;;;;;;;4755111;30;20043;-78
2022/01/24 11:02:44;;;;;;;21.42;11.98;;;;;;;;;;4759545;30;20058;-77
2022/01/24 11:05:17;;;;;;;29.52;14.90;;;;;;;;;;4758594;30;20229;-78
2022/01/24 11:07:52;;;;;;;28.75;13.75;;;;;;;;;;4754513;30;20044;-78
2022/01/24 11:10:18;;;;;;;26.17;13.73;;;;;;;;;;4746594;30;20693;-78
2022/01/24 11:12:44;;;;;;;25.08;13.60;;;;;;;;;;4750265;30;20537;-78
2022/01/24 11:15:11;;;;;;;29.10;14.53;;;;;;;;;;4750319;30;20119;-78
2022/01/24 11:17:36;;;;;;;29.08;14.68;;;;;;;;;;4749334;30;20452;-77
2022/01/24 11:20:03;;;;;;;25.53;14.37;;;;;;;;;;4748945;30;20052;-78
2022/01/24 11:22:31;;;;;;;28.00;15.00;;;;;;;;;;4749953;30;20035;-78
2022/01/24 11:25:06;;;;;;;27.77;14.35;;;;;;;;;;4749489;30;20052;-78
2022/01/24 11:27:33;;;;;;;27.15;14.55;;;;;;;;;;4748993;30;20072;-78
2022/01/24 11:30:03;;;;;;;28.60;15.40;;;;;;;;;;4748623;30;20095;-77
2022/01/24 11:32:32;;;;;;;30.70;16.42;;;;;;;;;;4748065;30;20461;-77
2022/01/24 11:34:58;;;;;;;27.70;15.50;;;;;;;;;;4749426;30;20040;-78
2022/01/24 11:37:53;;;;;;;22.50;11.80;;;;;;;;;;4749191;30;20036;-78
2022/01/24 11:40:21;;;;;;;26.17;13.23;;;;;;;;;;4748181;30;20097;-78
2022/01/24 11:42:47;;;;;;;25.67;12.95;;;;;;;;;;4747980;30;20093;-78
2022/01/24 11:45:17;;;;;;;31.20;14.00;;;;;;;;;;4748643;30;20036;-78
2022/01/24 11:47:45;;;;;;;24.48;14.00;;;;;;;;;;4744845;30;20062;-78
2022/01/24 11:50:31;;;;;;;24.38;14.00;;;;;;;;;;4749778;30;20052;-78
2022/01/24 11:52:57;;;;;;;28.48;13.77;;;;;;;;;;4749257;30;20040;-78
2022/01/24 11:55:36;;;;;;;24.95;14.02;;;;;;;;;;4748576;30;20449;-78
2022/01/24 11:58:06;;;;;;;23.63;13.25;;;;;;;;;;4747726;30;20044;-78
2022/01/24 12:00:42;;;;;;;23.77;13.57;;;;;;;;;;4749726;30;20040;-78
2022/01/24 12:03:26;;;;;;;27.30;13.90;;;;;;;;;;4742981;30;20060;-78
2022/01/24 12:05:56;;;;;;;25.48;13.45;;;;;;;;;;4748998;30;20109;-78
2022/01/24 12:08:42;;;;;;;28.50;14.60;;;;;;;;;;4747745;30;20054;-78
2022/01/24 12:11:11;;;;;;;27.17;14.05;;;;;;;;;;4748456;30;20113;-78
2022/01/24 12:13:46;;;;;;;28.02;14.82;;;;;;;;;;4747388;30;20060;-77
2022/01/24 12:16:13;;;;;;;25.10;13.65;;;;;;;;;;4747979;30;20054;-77
2022/01/24 12:18:39;;;;;;;27.08;14.25;;;;;;;;;;4748330;30;21029;-78
2022/01/24 12:21:09;;;;;;;28.67;15.67;;;;;;;;;;4749281;30;20048;-78
2022/01/24 12:23:34;;;;;;;30.10;16.60;;;;;;;;;;4748671;30;20044;-78
2022/01/24 12:26:08;;;;;;;27.37;14.80;;;;;;;;;;4748494;30;20048;-78
2022/01/24 12:28:42;;;;;;;27.63;14.05;;;;;;;;;;4749051;30;20059;-78
2022/01/24 12:31:20;;;;;;;30.77;18.27;;;;;;;;;;4749226;30;20040;-78
2022/01/24 12:33:51;;;;;;;;;;;;;;;;;;4747698;30;20040;-77
2022/01/24 12:36:36;;;;;;;27.25;13.77;;;;;;;;;;4748799;30;19961;-78
2022/01/24 12:39:12;;;;;;;32.08;16.65;;;;;;;;;;4740788;30;20047;-78
2022/01/24 12:41:43;;;;;;;32.00;15.95;;;;;;;;;;4747601;30;20494;-78
2022/01/24 12:46:16;;;;;;;29.60;15.55;;;;;;;;;;4740974;30;20549;-78
2022/01/24 12:46:54;;;;;;;34.08;15.10;;;;;;;;;;4744640;30;20083;-78
2022/01/24 12:49:19;;;;;;;31.60;15.87;;;;;;;;;;4748943;30;20088;-77
2022/01/24 12:51:45;;;;;;;28.63;14.17;;;;;;;;;;4746940;30;20556;-78
2022/01/24 12:54:11;;;;;;;28.42;14.25;;;;;;;;;;4747671;30;20036;-78
2022/01/24 12:56:36;;;;;;;30.87;15.10;;;;;;;;;;4748911;30;20045;-76
2022/01/24 12:59:02;;;;;;;29.47;15.10;;;;;;;;;;4749051;30;20083;-78
2022/01/24 13:01:27;;;;;;;27.23;14.07;;;;;;;;;;4749011;30;20977;-78
2022/01/24 13:03:59;;;;;;;30.67;14.30;;;;;;;;;;4748210;30;20146;-78
2022/01/24 13:06:26;;;;;;;29.50;15.13;;;;;;;;;;4748009;30;20060;-77
2022/01/24 13:09:05;;;;;;;28.67;14.95;;;;;;;;;;4748580;30;20123;-78
2022/01/24 13:11:31;;;;;;;25.08;13.55;;;;;;;;;;4734421;30;20139;-78
2022/01/24 13:14:18;;;;;;;30.88;14.98;;;;;;;;;;4744341;30;20048;-78
2022/01/24 13:22:40;;;;;;;33.22;15.15;;;;;;;;;;4747904;30;20543;-77
2022/01/24 13:25:10;;;;;;;31.80;16.05;;;;;;;;;;4751651;30;20128;-78
2022/01/24 13:27:43;;;;;;;31.40;15.13;;;;;;;;;;4751003;30;20046;-78
2022/01/24 13:30:14;;;;;;;35.95;15.32;;;;;;;;;;4747353;30;20462;-78
2022/01/24 13:33:01;;;;;;;33.10;16.52;;;;;;;;;;4750992;30;20062;-78
2022/01/24 13:35:41;;;;;;;31.73;15.63;;;;;;;;;;4751790;30;20040;-78
2022/01/24 13:38:11;;;;;;;32.88;16.50;;;;;;;;;;4745747;30;20044;-78
2022/01/24 13:40:38;;;;;;;29.92;16.58;;;;;;;;;;4748558;30;20036;-77
2022/01/24 13:43:06;;;;;;;33.38;17.27;;;;;;;;;;4743347;30;20049;-78
2022/01/24 13:45:40;;;;;;;31.88;14.88;;;;;;;;;;4747944;30;20043;-77
2022/01/24 13:48:15;;;;;;;28.75;14.77;;;;;;;;;;4748300;30;20051;-78
2022/01/24 13:50:50;;;;;;;30.60;15.18;;;;;;;;;;4752298;30;20040;-78
2022/01/24 13:53:51;;;;;;;30.67;14.98;;;;;;;;;;4751217;30;20083;-78
2022/01/24 13:56:30;;;;;;;34.35;15.23;;;;;;;;;;4717182;30;20056;-78
2022/01/24 13:59:12;;;;;;;40.30;18.60;;;;;;;;;;4750353;30;20138;-78
2022/01/24 14:02:09;;;;;;;38.00;19.27;;;;;;;;;;4750738;30;20044;-78
2022/01/24 14:04:49;;;;;;;42.65;19.35;;;;;;;;;;4750883;30;20127;-78
2022/01/24 14:07:20;;;;;;;30.77;14.52;;;;;;;;;;4745160;30;20055;-78
2022/01/24 14:09:50;;;;;;;28.10;14.90;;;;;;;;;;4750741;30;20490;-78
2022/01/24 14:12:26;;;;;;;38.33;17.33;;;;;;;;;;4750498;30;20075;-78
2022/01/24 14:15:05;;;;;;;29.55;14.90;;;;;;;;;;4750405;30;20048;-78
2022/01/24 14:20:10;;;;;;;33.53;16.23;;;;;;;;;;4751798;30;20056;-78
2022/01/24 14:22:45;;;;;;;28.55;13.85;;;;;;;;;;4750263;30;20043;-78
2022/01/24 14:25:13;;;;;;;30.65;14.95;;;;;;;;;;4751736;30;20048;-77
2022/01/24 14:28:04;;;;;;;30.67;16.35;;;;;;;;;;4750461;30;20959;-77
2022/01/24 14:30:37;;;;;;;30.05;13.82;;;;;;;;;;4742131;30;20067;-78
2022/01/24 14:33:11;;;;;;;29.92;15.15;;;;;;;;;;4749200;30;20052;-77
2022/01/24 14:35:50;;;;;;;29.38;14.77;;;;;;;;;;4751400;30;20056;-78
2022/01/24 14:38:38;;;;;;;32.58;14.55;;;;;;;;;;4749998;30;20496;-78
2022/01/24 14:41:07;;;;;;;31.65;14.82;;;;;;;;;;4752507;30;20061;-78
2022/01/24 14:46:40;;;;;;;32.30;15.27;;;;;;;;;;4686242;30;20053;-78
2022/01/24 14:49:24;;;;;;;34.25;16.10;;;;;;;;;;4695850;30;20423;-78
2022/01/24 14:51:51;;;;;;;33.05;16.90;;;;;;;;;;4735709;30;20159;-77
2022/01/24 14:54:18;;;;;;;;;;;;;;;;;;4750421;30;20048;-78
2022/01/24 14:56:45;;;;;;;33.83;16.55;;;;;;;;;;4742852;30;19926;-78
2022/01/24 14:59:11;;;;;;;32.85;16.35;;;;;;;;;;4748713;30;20054;-78
2022/01/24 15:01:37;;;;;;;35.65;17.73;;;;;;;;;;4750772;30;20048;-78
2022/01/24 15:04:04;;;;;;;32.00;14.98;;;;;;;;;;4734946;30;20427;-78
2022/01/24 15:06:30;;;;;;;30.33;15.00;;;;;;;;;;4749232;30;20035;-77
2022/01/24 15:08:59;;;;;;;33.28;15.85;;;;;;;;;;4747991;30;20417;-77
2022/01/24 15:11:29;;;;;;;31.88;14.38;;;;;;;;;;4749412;30;20040;-78
2022/01/24 15:14:01;;;;;;;30.33;16.13;;;;;;;;;;4749418;30;20040;-78
2022/01/24 15:25:17;;;;;;;31.10;14.63;;;;;;;;;;4737389;30;20045;-78
2022/01/24 15:27:21;;;;;;;30.80;15.70;;;;;;;;;;4742736;30;20501;-78
2022/01/24 15:29:47;;;;;;;32.40;15.93;;;;;;;;;;4749341;30;20051;-78
2022/01/24 15:32:12;;;;;;;34.60;17.43;;;;;;;;;;4749583;30;20051;-78
2022/01/24 15:34:38;;;;;;;31.33;15.43;;;;;;;;;;4749844;30;20124;-77
2022/01/24 15:37:06;;;;;;;32.80;15.23;;;;;;;;;;4746043;30;20044;-78
2022/01/24 15:39:32;;;;;;;34.63;16.75;;;;;;;;;;4747853;30;20052;-78
2022/01/24 15:42:03;;;;;;;33.63;16.23;;;;;;;;;;4749114;30;20055;-77
2022/01/24 15:46:59;;;;;;;30.37;14.47;;;;;;;;;;4747931;30;20133;-77
2022/01/24 15:49:25;;;;;;;32.70;15.55;;;;;;;;;;4748280;30;20071;-77
2022/01/24 15:51:50;;;;;;;32.17;15.30;;;;;;;;;;4748843;30;20505;-78
2022/01/24 15:54:18;;;;;;;32.47;15.10;;;;;;;;;;4749184;30;20036;-78
2022/01/24 15:59:09;;;;;;;31.50;15.07;;;;;;;;;;4749523;30;20064;-78
2022/01/24 16:01:36;;;;;;;36.57;15.30;;;;;;;;;;4748179;30;20048;-77
2022/01/24 16:04:02;;;;;;;33.20;16.35;;;;;;;;;;4741395;30;20058;-78
2022/01/24 16:06:28;;;;;;;34.40;16.95;;;;;;;;;;4749596;30;20691;-77
2022/01/24 16:08:54;;;;;;;38.95;19.48;;;;;;;;;;4749590;30;20044;-78
2022/01/24 16:11:24;;;;;;;38.00;17.90;;;;;;;;;;4749027;30;20042;-77
2022/01/24 16:13:51;;;;;;;32.83;16.15;;;;;;;;;;4749087;30;20039;-78
2022/01/24 16:16:17;;;;;;;29.63;13.52;;;;;;;;;;4748172;30;20075;-77
2022/01/24 16:18:43;;;;;;;29.38;15.63;;;;;;;;;;4748207;30;20069;-78
2022/01/24 16:21:26;;;;;;;36.65;16.92;;;;;;;;;;4749412;30;20127;-78
2022/01/24 16:26:51;;;;;;;29.60;15.20;;;;;;;;;;4709876;30;20054;-77
2022/01/24 16:29:16;;;;;;;34.37;15.97;;;;;;;;;;4748953;30;20040;-78
2022/01/24 16:31:42;;;;;;;34.70;17.07;;;;;;;;;;4749569;30;20036;-78
2022/01/24 16:34:08;;;;;;;32.00;15.40;;;;;;;;;;4749303;30;20459;-77
2022/01/24 16:36:34;;;;;;;34.63;16.07;;;;;;;;;;4747772;30;20135;-77
2022/01/24 16:39:00;;;;;;;36.05;17.90;;;;;;;;;;4748663;30;20289;-78
2022/01/24 16:41:54;;;;;;;36.65;17.42;;;;;;;;;;4747644;30;20055;-78